sim
Sign-in with your pilot id or email,
or register
Callsign
Passwort

Schedule Details

Flight Number: DLH2246
Departure: Munich Airport (EDDM) at 06:00
Arrival: Lyon Saint Exupery Airport (LFLL) at 07:20
Route: Lufthansa Passenger Schedule. Enter filed route here before submitting Pirep.

Weather Information
Getting current METAR information for EDDM 211720Z 05001KT CAVOK 19/13 Q1015 NOSIG
Getting current METAR information for LFLL 211730Z 24003KT 200V260 9999 FEW050TCU SCT140 22/15 Q1015 NOSIG

Schedule Frequency

Route Map